CheckWX is a tool to help pilots better visualize weather data.  It is not intended as a substitute for an official pre-flight weather briefing.

18:03:30 UTC

MMHO TAF
General Ignacio P. Garcia International Airport
Hermosillo, Mexico
TAF MMHO 241614Z 2418/2518 20010KT P6SM SKC FM250300 30010KT P6SM SKC

Apr-24@
18:00 UTC

Apr-24 @ 18:00 UTC

Apr-25@
03:00 UTC

Apr-25 @ 03:00 UTC

TAF MMHO 241614Z 2418/2518 20010KT P6SM SKC
Wind
  • 200° at 10 KTS
Cloud Levels
  • Clear skies

Apr-25@
03:00 UTC

Apr-25 @ 03:00 UTC

Apr-25@
18:00 UTC

Apr-25 @ 18:00 UTC

FM250300 30010KT P6SM SKC

From

From Standard forecast or significant change

Wind
  • 300° at 10 KTS
Cloud Levels
  • Clear skies